sensor_id;sensor_type;location;lat;lon;timestamp;P1;durP1;ratioP1;P2;durP2;ratioP2
51194;SDS011;37259;49.972;19.850;2024-01-15T00:00:25;5.3;;;2.5;;
51194;SDS011;37259;49.972;19.850;2024-01-15T00:01:25;5.3;;;2.5;;
51194;SDS011;37259;49.972;19.850;2024-01-15T00:02:25;5.3;;;2.5;;
51194;SDS011;37259;49.972;19.850;2024-01-15T00:03:25;5.3;;;2.5;;
51194;SDS011;37259;49.972;19.850;2024-01-15T00:04:25;5.3;;;2.5;;
51194;SDS011;37259;49.972;19.850;2024-01-15T00:05:25;5.3;;;2.5;;
51194;SDS011;37259;49.972;19.850;2024-01-15T00:06:25;5.3;;;2.5;;
51194;SDS011;37259;49.972;19.850;2024-01-15T00:07:25;5.3;;;2.5;;
51194;SDS011;37259;49.972;19.850;2024-01-15T00:08:25;5.3;;;2.5;;
51194;SDS011;37259;49.972;19.850;2024-01-15T00:09:25;5.3;;;2.5;;
51194;SDS011;37259;49.972;19.850;2024-01-15T00:10:25;5.3;;;2.5;;
51194;SDS011;37259;49.972;19.850;2024-01-15T00:11:25;5.3;;;2.5;;
51194;SDS011;37259;49.972;19.850;2024-01-15T00:12:25;5.3;;;2.5;;
51194;SDS011;37259;49.972;19.850;2024-01-15T00:13:25;5.3;;;2.5;;
51194;SDS011;37259;49.972;19.850;2024-01-15T00:14:25;5.3;;;2.5;;
51194;SDS011;37259;49.972;19.850;2024-01-15T00:15:25;5.3;;;2.5;;
51194;SDS011;37259;49.972;19.850;2024-01-15T00:16:25;5.3;;;2.5;;
51194;SDS011;37259;49.972;19.850;2024-01-15T00:17:25;5.3;;;2.5;;
51194;SDS011;37259;49.972;19.850;2024-01-15T00:18:25;5.3;;;2.5;;
51194;SDS011;37259;49.972;19.850;2024-01-15T00:19:25;5.3;;;2.5;;
51194;SDS011;37259;49.972;19.850;2024-01-15T00:20:25;5.3;;;2.5;;
51194;SDS011;37259;49.972;19.850;2024-01-15T00:21:25;5.3;;;2.5;;
51194;SDS011;37259;49.972;19.850;2024-01-15T00:22:25;5.3;;;2.5;;
51194;SDS011;37259;49.972;19.850;2024-01-15T00:23:25;5.3;;;2.5;;
51194;SDS011;37259;49.972;19.850;2024-01-15T00:24:25;5.3;;;2.5;;
51194;SDS011;37259;49.972;19.850;2024-01-15T00:25:25;5.3;;;2.5;;
51194;SDS011;37259;49.972;19.850;2024-01-15T00:26:25;5.2;;;2.8;;
51194;SDS011;37259;49.972;19.850;2024-01-15T00:27:25;5.2;;;2.8;;
51194;SDS011;37259;49.972;19.850;2024-01-15T00:28:25;5.2;;;2.8;;
51194;SDS011;37259;49.972;19.850;2024-01-15T00:29:25;5.2;;;2.8;;
51194;SDS011;37259;49.972;19.850;2024-01-15T00:30:25;5.2;;;2.8;;
51194;SDS011;37259;49.972;19.850;2024-01-15T00:31:25;5.2;;;2.8;;
51194;SDS011;37259;49.972;19.850;2024-01-15T00:32:25;5.2;;;2.8;;
51194;SDS011;37259;49.972;19.850;2024-01-15T00:33:25;5.2;;;2.8;;
51194;SDS011;37259;49.972;19.850;2024-01-15T00:34:25;5.2;;;2.8;;
51194;SDS011;37259;49.972;19.850;2024-01-15T00:35:25;5.2;;;2.8;;
51194;SDS011;37259;49.972;19.850;2024-01-15T00:36:25;5.2;;;2.8;;
51194;SDS011;37259;49.972;19.850;2024-01-15T00:37:25;5.2;;;2.8;;
51194;SDS011;37259;49.972;19.850;2024-01-15T00:38:25;5.2;;;2.8;;
51194;SDS011;37259;49.972;19.850;2024-01-15T00:39:25;5.2;;;2.8;;
51194;SDS011;37259;49.972;19.850;2024-01-15T00:40:25;5.2;;;2.8;;
51194;SDS011;37259;49.972;19.850;2024-01-15T00:41:25;5.2;;;2.8;;
51194;SDS011;37259;49.972;19.850;2024-01-15T00:42:25;5.2;;;2.8;;
51194;SDS011;37259;49.972;19.850;2024-01-15T00:43:25;5.2;;;2.8;;
51194;SDS011;37259;49.972;19.850;2024-01-15T00:44:25;5.2;;;2.8;;
51194;SDS011;37259;49.972;19.850;2024-01-15T00:45:25;5.2;;;2.8;;
51194;SDS011;37259;49.972;19.850;2024-01-15T00:46:25;5.2;;;2.8;;
51194;SDS011;37259;49.972;19.850;2024-01-15T00:47:25;5.2;;;2.8;;
51194;SDS011;37259;49.972;19.850;2024-01-15T00:48:25;5.2;;;2.8;;
51194;SDS011;37259;49.972;19.850;2024-01-15T00:49:26;5.2;;;2.8;;
51194;SDS011;37259;49.972;19.850;2024-01-15T00:50:25;5.2;;;2.8;;
51194;SDS011;37259;49.972;19.850;2024-01-15T00:51:25;5.2;;;2.8;;
51194;SDS011;37259;49.972;19.850;2024-01-15T00:52:25;5.2;;;2.8;;
51194;SDS011;37259;49.972;19.850;2024-01-15T00:53:25;5.2;;;2.8;;
51194;SDS011;37259;49.972;19.850;2024-01-15T00:54:25;5.2;;;2.8;;
51194;SDS011;37259;49.972;19.850;2024-01-15T00:55:25;5.2;;;2.8;;
51194;SDS011;37259;49.972;19.850;2024-01-15T00:56:25;5.5;;;3.5;;
51194;SDS011;37259;49.972;19.850;2024-01-15T00:57:25;5.5;;;3.5;;
51194;SDS011;37259;49.972;19.850;2024-01-15T00:58:25;5.5;;;3.5;;
51194;SDS011;37259;49.972;19.850;2024-01-15T00:59:25;5.5;;;3.5;;
51194;SDS011;37259;49.972;19.850;2024-01-15T01:00:25;5.5;;;3.5;;
51194;SDS011;37259;49.972;19.850;2024-01-15T01:01:25;5.5;;;3.5;;
51194;SDS011;37259;49.972;19.850;2024-01-15T01:02:25;5.5;;;3.5;;
51194;SDS011;37259;49.972;19.850;2024-01-15T01:03:25;5.5;;;3.5;;
51194;SDS011;37259;49.972;19.850;2024-01-15T01:04:25;5.5;;;3.5;;
51194;SDS011;37259;49.972;19.850;2024-01-15T01:05:25;5.5;;;3.5;;
51194;SDS011;37259;49.972;19.850;2024-01-15T01:06:25;5.5;;;3.5;;
51194;SDS011;37259;49.972;19.850;2024-01-15T01:07:25;5.5;;;3.5;;
51194;SDS011;37259;49.972;19.850;2024-01-15T01:08:25;5.5;;;3.5;;
51194;SDS011;37259;49.972;19.850;2024-01-15T01:09:25;5.5;;;3.5;;
51194;SDS011;37259;49.972;19.850;2024-01-15T01:10:25;5.5;;;3.5;;
51194;SDS011;37259;49.972;19.850;2024-01-15T01:11:25;5.5;;;3.5;;
51194;SDS011;37259;49.972;19.850;2024-01-15T01:12:25;5.5;;;3.5;;
51194;SDS011;37259;49.972;19.850;2024-01-15T01:13:25;5.5;;;3.5;;
51194;SDS011;37259;49.972;19.850;2024-01-15T01:14:25;5.5;;;3.5;;
51194;SDS011;37259;49.972;19.850;2024-01-15T01:15:25;5.5;;;3.5;;
51194;SDS011;37259;49.972;19.850;2024-01-15T01:16:25;5.5;;;3.5;;
51194;SDS011;37259;49.972;19.850;2024-01-15T01:17:25;5.5;;;3.5;;
51194;SDS011;37259;49.972;19.850;2024-01-15T01:18:25;5.5;;;3.5;;
51194;SDS011;37259;49.972;19.850;2024-01-15T01:19:25;5.5;;;3.5;;
51194;SDS011;37259;49.972;19.850;2024-01-15T01:20:25;5.5;;;3.5;;
51194;SDS011;37259;49.972;19.850;2024-01-15T01:21:25;5.5;;;3.5;;
51194;SDS011;37259;49.972;19.850;2024-01-15T01:22:25;5.5;;;3.5;;
51194;SDS011;37259;49.972;19.850;2024-01-15T01:23:25;5.5;;;3.5;;
51194;SDS011;37259;49.972;19.850;2024-01-15T01:24:25;5.5;;;3.5;;
51194;SDS011;37259;49.972;19.850;2024-01-15T01:25:26;5.5;;;3.5;;
51194;SDS011;37259;49.972;19.850;2024-01-15T01:26:25;4.6;;;2.6;;
51194;SDS011;37259;49.972;19.850;2024-01-15T01:27:25;4.6;;;2.6;;
51194;SDS011;37259;49.972;19.850;2024-01-15T01:28:25;4.6;;;2.6;;
51194;SDS011;37259;49.972;19.850;2024-01-15T01:29:25;4.6;;;2.6;;
51194;SDS011;37259;49.972;19.850;2024-01-15T01:30:25;4.6;;;2.6;;
51194;SDS011;37259;49.972;19.850;2024-01-15T01:31:25;4.6;;;2.6;;
51194;SDS011;37259;49.972;19.850;2024-01-15T01:32:25;4.6;;;2.6;;
51194;SDS011;37259;49.972;19.850;2024-01-15T01:33:25;4.6;;;2.6;;
51194;SDS011;37259;49.972;19.850;2024-01-15T01:34:25;4.6;;;2.6;;
51194;SDS011;37259;49.972;19.850;2024-01-15T01:35:25;4.6;;;2.6;;
51194;SDS011;37259;49.972;19.850;2024-01-15T01:36:25;4.6;;;2.6;;
51194;SDS011;37259;49.972;19.850;2024-01-15T01:37:25;4.6;;;2.6;;
51194;SDS011;37259;49.972;19.850;2024-01-15T01:38:25;4.6;;;2.6;;
51194;SDS011;37259;49.972;19.850;2024-01-15T01:39:25;4.6;;;2.6;;
51194;SDS011;37259;49.972;19.850;2024-01-15T01:40:25;4.6;;;2.6;;
51194;SDS011;37259;49.972;19.850;2024-01-15T01:41:25;4.6;;;2.6;;
51194;SDS011;37259;49.972;19.850;2024-01-15T01:42:25;4.6;;;2.6;;
51194;SDS011;37259;49.972;19.850;2024-01-15T01:43:25;4.6;;;2.6;;
51194;SDS011;37259;49.972;19.850;2024-01-15T01:44:25;4.6;;;2.6;;
51194;SDS011;37259;49.972;19.850;2024-01-15T01:45:25;4.6;;;2.6;;
51194;SDS011;37259;49.972;19.850;2024-01-15T01:46:25;4.6;;;2.6;;
51194;SDS011;37259;49.972;19.850;2024-01-15T01:47:25;4.6;;;2.6;;
51194;SDS011;37259;49.972;19.850;2024-01-15T01:48:25;4.6;;;2.6;;
51194;SDS011;37259;49.972;19.850;2024-01-15T01:49:25;4.6;;;2.6;;
51194;SDS011;37259;49.972;19.850;2024-01-15T01:50:25;4.6;;;2.6;;
51194;SDS011;37259;49.972;19.850;2024-01-15T01:51:25;4.6;;;2.6;;
51194;SDS011;37259;49.972;19.850;2024-01-15T01:52:25;4.6;;;2.6;;
51194;SDS011;37259;49.972;19.850;2024-01-15T01:53:25;4.6;;;2.6;;
51194;SDS011;37259;49.972;19.850;2024-01-15T01:54:25;4.6;;;2.6;;
51194;SDS011;37259;49.972;19.850;2024-01-15T01:55:26;4.6;;;2.6;;
51194;SDS011;37259;49.972;19.850;2024-01-15T01:56:25;5.3;;;2.6;;
51194;SDS011;37259;49.972;19.850;2024-01-15T01:57:25;5.3;;;2.6;;
51194;SDS011;37259;49.972;19.850;2024-01-15T01:58:25;5.3;;;2.6;;
51194;SDS011;37259;49.972;19.850;2024-01-15T01:59:25;5.3;;;2.6;;
51194;SDS011;37259;49.972;19.850;2024-01-15T02:00:25;5.3;;;2.6;;
51194;SDS011;37259;49.972;19.850;2024-01-15T02:01:25;5.3;;;2.6;;
51194;SDS011;37259;49.972;19.850;2024-01-15T02:02:25;5.3;;;2.6;;
51194;SDS011;37259;49.972;19.850;2024-01-15T02:03:25;5.3;;;2.6;;
51194;SDS011;37259;49.972;19.850;2024-01-15T02:04:25;5.3;;;2.6;;
51194;SDS011;37259;49.972;19.850;2024-01-15T02:05:26;5.3;;;2.6;;
51194;SDS011;37259;49.972;19.850;2024-01-15T02:06:25;5.3;;;2.6;;
51194;SDS011;37259;49.972;19.850;2024-01-15T02:07:25;5.3;;;2.6;;
51194;SDS011;37259;49.972;19.850;2024-01-15T02:08:25;5.3;;;2.6;;
51194;SDS011;37259;49.972;19.850;2024-01-15T02:09:25;5.3;;;2.6;;
51194;SDS011;37259;49.972;19.850;2024-01-15T02:10:25;5.3;;;2.6;;
51194;SDS011;37259;49.972;19.850;2024-01-15T02:11:25;5.3;;;2.6;;
51194;SDS011;37259;49.972;19.850;2024-01-15T02:12:25;5.3;;;2.6;;
51194;SDS011;37259;49.972;19.850;2024-01-15T02:13:25;5.3;;;2.6;;
51194;SDS011;37259;49.972;19.850;2024-01-15T02:14:25;5.3;;;2.6;;
51194;SDS011;37259;49.972;19.850;2024-01-15T02:15:25;5.3;;;2.6;;
51194;SDS011;37259;49.972;19.850;2024-01-15T02:16:26;5.3;;;2.6;;
51194;SDS011;37259;49.972;19.850;2024-01-15T02:17:25;5.3;;;2.6;;
51194;SDS011;37259;49.972;19.850;2024-01-15T02:18:25;5.3;;;2.6;;
51194;SDS011;37259;49.972;19.850;2024-01-15T02:19:25;5.3;;;2.6;;
51194;SDS011;37259;49.972;19.850;2024-01-15T02:20:25;5.3;;;2.6;;
51194;SDS011;37259;49.972;19.850;2024-01-15T02:21:25;5.3;;;2.6;;
51194;SDS011;37259;49.972;19.850;2024-01-15T02:22:25;5.3;;;2.6;;
51194;SDS011;37259;49.972;19.850;2024-01-15T02:23:25;5.3;;;2.6;;
51194;SDS011;37259;49.972;19.850;2024-01-15T02:24:25;5.3;;;2.6;;
51194;SDS011;37259;49.972;19.850;2024-01-15T02:25:25;5.3;;;2.6;;
51194;SDS011;37259;49.972;19.850;2024-01-15T02:26:25;6.4;;;2.5;;
51194;SDS011;37259;49.972;19.850;2024-01-15T02:27:25;6.4;;;2.5;;
51194;SDS011;37259;49.972;19.850;2024-01-15T02:28:25;6.4;;;2.5;;
51194;SDS011;37259;49.972;19.850;2024-01-15T02:29:25;6.4;;;2.5;;
51194;SDS011;37259;49.972;19.850;2024-01-15T02:30:25;6.4;;;2.5;;
51194;SDS011;37259;49.972;19.850;2024-01-15T02:31:25;6.4;;;2.5;;
51194;SDS011;37259;49.972;19.850;2024-01-15T02:32:25;6.4;;;2.5;;
51194;SDS011;37259;49.972;19.850;2024-01-15T02:33:25;6.4;;;2.5;;
51194;SDS011;37259;49.972;19.850;2024-01-15T02:34:25;6.4;;;2.5;;
51194;SDS011;37259;49.972;19.850;2024-01-15T02:35:25;6.4;;;2.5;;
51194;SDS011;37259;49.972;19.850;2024-01-15T02:36:25;6.4;;;2.5;;
51194;SDS011;37259;49.972;19.850;2024-01-15T02:37:25;6.4;;;2.5;;
51194;SDS011;37259;49.972;19.850;2024-01-15T02:38:25;6.4;;;2.5;;
51194;SDS011;37259;49.972;19.850;2024-01-15T02:39:25;6.4;;;2.5;;
51194;SDS011;37259;49.972;19.850;2024-01-15T02:40:25;6.4;;;2.5;;
51194;SDS011;37259;49.972;19.850;2024-01-15T02:41:25;6.4;;;2.5;;
51194;SDS011;37259;49.972;19.850;2024-01-15T02:42:25;6.4;;;2.5;;
51194;SDS011;37259;49.972;19.850;2024-01-15T02:43:25;6.4;;;2.5;;
51194;SDS011;37259;49.972;19.850;2024-01-15T02:44:25;6.4;;;2.5;;
51194;SDS011;37259;49.972;19.850;2024-01-15T02:45:25;6.4;;;2.5;;
51194;SDS011;37259;49.972;19.850;2024-01-15T02:46:25;6.4;;;2.5;;
51194;SDS011;37259;49.972;19.850;2024-01-15T02:47:25;6.4;;;2.5;;
51194;SDS011;37259;49.972;19.850;2024-01-15T02:48:25;6.4;;;2.5;;
51194;SDS011;37259;49.972;19.850;2024-01-15T02:49:25;6.4;;;2.5;;
51194;SDS011;37259;49.972;19.850;2024-01-15T02:50:25;6.4;;;2.5;;
51194;SDS011;37259;49.972;19.850;2024-01-15T02:51:25;6.4;;;2.5;;
51194;SDS011;37259;49.972;19.850;2024-01-15T02:52:25;6.4;;;2.5;;
51194;SDS011;37259;49.972;19.850;2024-01-15T02:53:25;6.4;;;2.5;;
51194;SDS011;37259;49.972;19.850;2024-01-15T02:54:25;6.4;;;2.5;;
51194;SDS011;37259;49.972;19.850;2024-01-15T02:55:25;6.4;;;2.5;;
51194;SDS011;37259;49.972;19.850;2024-01-15T02:56:25;3.9;;;1.8;;
51194;SDS011;37259;49.972;19.850;2024-01-15T02:57:25;3.9;;;1.8;;
51194;SDS011;37259;49.972;19.850;2024-01-15T02:58:25;3.9;;;1.8;;
51194;SDS011;37259;49.972;19.850;2024-01-15T02:59:25;3.9;;;1.8;;
51194;SDS011;37259;49.972;19.850;2024-01-15T03:00:25;3.9;;;1.8;;
51194;SDS011;37259;49.972;19.850;2024-01-15T03:01:25;3.9;;;1.8;;
51194;SDS011;37259;49.972;19.850;2024-01-15T03:02:25;3.9;;;1.8;;
51194;SDS011;37259;49.972;19.850;2024-01-15T03:03:25;3.9;;;1.8;;
51194;SDS011;37259;49.972;19.850;2024-01-15T03:04:25;3.9;;;1.8;;
51194;SDS011;37259;49.972;19.850;2024-01-15T03:05:25;3.9;;;1.8;;
51194;SDS011;37259;49.972;19.850;2024-01-15T03:06:25;3.9;;;1.8;;
51194;SDS011;37259;49.972;19.850;2024-01-15T03:07:25;3.9;;;1.8;;
51194;SDS011;37259;49.972;19.850;2024-01-15T03:08:25;3.9;;;1.8;;
51194;SDS011;37259;49.972;19.850;2024-01-15T03:09:25;3.9;;;1.8;;
51194;SDS011;37259;49.972;19.850;2024-01-15T03:10:25;3.9;;;1.8;;
51194;SDS011;37259;49.972;19.850;2024-01-15T03:11:25;3.9;;;1.8;;
51194;SDS011;37259;49.972;19.850;2024-01-15T03:12:25;3.9;;;1.8;;
51194;SDS011;37259;49.972;19.850;2024-01-15T03:13:25;3.9;;;1.8;;
51194;SDS011;37259;49.972;19.850;2024-01-15T03:14:25;3.9;;;1.8;;
51194;SDS011;37259;49.972;19.850;2024-01-15T03:15:25;3.9;;;1.8;;
51194;SDS011;37259;49.972;19.850;2024-01-15T03:16:25;3.9;;;1.8;;
51194;SDS011;37259;49.972;19.850;2024-01-15T03:17:25;3.9;;;1.8;;
51194;SDS011;37259;49.972;19.850;2024-01-15T03:18:25;3.9;;;1.8;;
51194;SDS011;37259;49.972;19.850;2024-01-15T03:19:25;3.9;;;1.8;;
51194;SDS011;37259;49.972;19.850;2024-01-15T03:20:25;3.9;;;1.8;;
51194;SDS011;37259;49.972;19.850;2024-01-15T03:21:25;3.9;;;1.8;;
51194;SDS011;37259;49.972;19.850;2024-01-15T03:22:25;3.9;;;1.8;;
51194;SDS011;37259;49.972;19.850;2024-01-15T03:23:25;3.9;;;1.8;;
51194;SDS011;37259;49.972;19.850;2024-01-15T03:24:25;3.9;;;1.8;;
51194;SDS011;37259;49.972;19.850;2024-01-15T03:25:25;3.9;;;1.8;;
51194;SDS011;37259;49.972;19.850;2024-01-15T03:26:25;3.7;;;2.5;;
51194;SDS011;37259;49.972;19.850;2024-01-15T03:27:25;3.7;;;2.5;;
51194;SDS011;37259;49.972;19.850;2024-01-15T03:28:25;3.7;;;2.5;;
51194;SDS011;37259;49.972;19.850;2024-01-15T03:29:25;3.7;;;2.5;;
51194;SDS011;37259;49.972;19.850;2024-01-15T03:30:25;3.7;;;2.5;;
51194;SDS011;37259;49.972;19.850;2024-01-15T03:31:25;3.7;;;2.5;;
51194;SDS011;37259;49.972;19.850;2024-01-15T03:32:25;3.7;;;2.5;;
51194;SDS011;37259;49.972;19.850;2024-01-15T03:33:25;3.7;;;2.5;;
51194;SDS011;37259;49.972;19.850;2024-01-15T03:34:25;3.7;;;2.5;;
51194;SDS011;37259;49.972;19.850;2024-01-15T03:35:25;3.7;;;2.5;;
51194;SDS011;37259;49.972;19.850;2024-01-15T03:36:25;3.7;;;2.5;;
51194;SDS011;37259;49.972;19.850;2024-01-15T03:37:25;3.7;;;2.5;;
51194;SDS011;37259;49.972;19.850;2024-01-15T03:38:26;3.7;;;2.5;;
51194;SDS011;37259;49.972;19.850;2024-01-15T03:39:25;3.7;;;2.5;;
51194;SDS011;37259;49.972;19.850;2024-01-15T03:40:25;3.7;;;2.5;;
51194;SDS011;37259;49.972;19.850;2024-01-15T03:41:25;3.7;;;2.5;;
51194;SDS011;37259;49.972;19.850;2024-01-15T03:42:25;3.7;;;2.5;;
51194;SDS011;37259;49.972;19.850;2024-01-15T03:43:25;3.7;;;2.5;;
51194;SDS011;37259;49.972;19.850;2024-01-15T03:44:25;3.7;;;2.5;;
51194;SDS011;37259;49.972;19.850;2024-01-15T03:45:25;3.7;;;2.5;;
51194;SDS011;37259;49.972;19.850;2024-01-15T03:46:25;3.7;;;2.5;;
51194;SDS011;37259;49.972;19.850;2024-01-15T03:47:25;3.7;;;2.5;;
51194;SDS011;37259;49.972;19.850;2024-01-15T03:48:25;3.7;;;2.5;;
51194;SDS011;37259;49.972;19.850;2024-01-15T03:49:25;3.7;;;2.5;;
51194;SDS011;37259;49.972;19.850;2024-01-15T03:50:25;3.7;;;2.5;;
51194;SDS011;37259;49.972;19.850;2024-01-15T03:51:25;3.7;;;2.5;;
51194;SDS011;37259;49.972;19.850;2024-01-15T03:52:25;3.7;;;2.5;;
51194;SDS011;37259;49.972;19.850;2024-01-15T03:53:25;3.7;;;2.5;;
51194;SDS011;37259;49.972;19.850;2024-01-15T03:54:25;3.7;;;2.5;;
51194;SDS011;37259;49.972;19.850;2024-01-15T03:55:25;3.4;;;2;;
51194;SDS011;37259;49.972;19.850;2024-01-15T03:56:25;3.4;;;2;;
51194;SDS011;37259;49.972;19.850;2024-01-15T03:57:25;3.4;;;2;;
51194;SDS011;37259;49.972;19.850;2024-01-15T03:58:25;3.4;;;2;;
51194;SDS011;37259;49.972;19.850;2024-01-15T03:59:26;3.4;;;2;;
51194;SDS011;37259;49.972;19.850;2024-01-15T04:00:25;3.4;;;2;;
51194;SDS011;37259;49.972;19.850;2024-01-15T04:01:25;3.4;;;2;;
51194;SDS011;37259;49.972;19.850;2024-01-15T04:02:25;3.4;;;2;;
51194;SDS011;37259;49.972;19.850;2024-01-15T04:03:25;3.4;;;2;;
51194;SDS011;37259;49.972;19.850;2024-01-15T04:04:25;3.4;;;2;;
51194;SDS011;37259;49.972;19.850;2024-01-15T04:05:25;3.4;;;2;;
51194;SDS011;37259;49.972;19.850;2024-01-15T04:06:25;3.4;;;2;;
51194;SDS011;37259;49.972;19.850;2024-01-15T04:07:25;3.4;;;2;;
51194;SDS011;37259;49.972;19.850;2024-01-15T04:08:25;3.4;;;2;;
51194;SDS011;37259;49.972;19.850;2024-01-15T04:09:25;3.4;;;2;;
51194;SDS011;37259;49.972;19.850;2024-01-15T04:10:25;3.4;;;2;;
51194;SDS011;37259;49.972;19.850;2024-01-15T04:11:25;3.4;;;2;;
51194;SDS011;37259;49.972;19.850;2024-01-15T04:12:25;3.4;;;2;;
51194;SDS011;37259;49.972;19.850;2024-01-15T04:13:25;3.4;;;2;;
51194;SDS011;37259;49.972;19.850;2024-01-15T04:14:25;3.4;;;2;;
51194;SDS011;37259;49.972;19.850;2024-01-15T04:15:25;3.4;;;2;;
51194;SDS011;37259;49.972;19.850;2024-01-15T04:16:25;3.4;;;2;;
51194;SDS011;37259;49.972;19.850;2024-01-15T04:17:26;3.4;;;2;;
51194;SDS011;37259;49.972;19.850;2024-01-15T04:18:25;3.4;;;2;;
51194;SDS011;37259;49.972;19.850;2024-01-15T04:19:25;3.4;;;2;;
51194;SDS011;37259;49.972;19.850;2024-01-15T04:20:25;3.4;;;2;;
51194;SDS011;37259;49.972;19.850;2024-01-15T04:21:25;3.4;;;2;;
51194;SDS011;37259;49.972;19.850;2024-01-15T04:22:25;3.4;;;2;;
51194;SDS011;37259;49.972;19.850;2024-01-15T04:23:25;3.4;;;2;;
51194;SDS011;37259;49.972;19.850;2024-01-15T04:24:25;3.4;;;2;;
51194;SDS011;37259;49.972;19.850;2024-01-15T04:25:25;3.7;;;2;;
51194;SDS011;37259;49.972;19.850;2024-01-15T04:26:25;3.7;;;2;;
51194;SDS011;37259;49.972;19.850;2024-01-15T04:27:25;3.7;;;2;;
51194;SDS011;37259;49.972;19.850;2024-01-15T04:28:25;3.7;;;2;;
51194;SDS011;37259;49.972;19.850;2024-01-15T04:29:25;3.7;;;2;;
51194;SDS011;37259;49.972;19.850;2024-01-15T04:30:25;3.7;;;2;;
51194;SDS011;37259;49.972;19.850;2024-01-15T04:31:25;3.7;;;2;;
51194;SDS011;37259;49.972;19.850;2024-01-15T04:32:25;3.7;;;2;;
51194;SDS011;37259;49.972;19.850;2024-01-15T04:33:25;3.7;;;2;;
51194;SDS011;37259;49.972;19.850;2024-01-15T04:34:25;3.7;;;2;;
51194;SDS011;37259;49.972;19.850;2024-01-15T04:35:25;3.7;;;2;;
51194;SDS011;37259;49.972;19.850;2024-01-15T04:36:25;3.7;;;2;;
51194;SDS011;37259;49.972;19.850;2024-01-15T04:37:25;3.7;;;2;;
51194;SDS011;37259;49.972;19.850;2024-01-15T04:38:25;3.7;;;2;;
51194;SDS011;37259;49.972;19.850;2024-01-15T04:39:25;3.7;;;2;;
51194;SDS011;37259;49.972;19.850;2024-01-15T04:40:25;3.7;;;2;;
51194;SDS011;37259;49.972;19.850;2024-01-15T04:41:25;3.7;;;2;;
51194;SDS011;37259;49.972;19.850;2024-01-15T04:42:25;3.7;;;2;;
51194;SDS011;37259;49.972;19.850;2024-01-15T04:43:25;3.7;;;2;;
51194;SDS011;37259;49.972;19.850;2024-01-15T04:44:25;3.7;;;2;;
51194;SDS011;37259;49.972;19.850;2024-01-15T04:45:25;3.7;;;2;;
51194;SDS011;37259;49.972;19.850;2024-01-15T04:46:25;3.7;;;2;;
51194;SDS011;37259;49.972;19.850;2024-01-15T04:47:25;3.7;;;2;;
51194;SDS011;37259;49.972;19.850;2024-01-15T04:48:25;3.7;;;2;;
51194;SDS011;37259;49.972;19.850;2024-01-15T04:49:25;3.7;;;2;;
51194;SDS011;37259;49.972;19.850;2024-01-15T04:50:25;3.7;;;2;;
51194;SDS011;37259;49.972;19.850;2024-01-15T04:51:25;3.7;;;2;;
51194;SDS011;37259;49.972;19.850;2024-01-15T04:52:25;3.7;;;2;;
51194;SDS011;37259;49.972;19.850;2024-01-15T04:53:25;3.7;;;2;;
51194;SDS011;37259;49.972;19.850;2024-01-15T04:54:25;3.7;;;2;;
51194;SDS011;37259;49.972;19.850;2024-01-15T04:55:25;5.9;;;1.8;;
51194;SDS011;37259;49.972;19.850;2024-01-15T04:56:25;5.9;;;1.8;;
51194;SDS011;37259;49.972;19.850;2024-01-15T04:57:25;5.9;;;1.8;;
51194;SDS011;37259;49.972;19.850;2024-01-15T04:58:25;5.9;;;1.8;;
51194;SDS011;37259;49.972;19.850;2024-01-15T04:59:25;5.9;;;1.8;;
51194;SDS011;37259;49.972;19.850;2024-01-15T05:00:25;5.9;;;1.8;;
51194;SDS011;37259;49.972;19.850;2024-01-15T05:01:25;5.9;;;1.8;;
51194;SDS011;37259;49.972;19.850;2024-01-15T05:02:25;5.9;;;1.8;;
51194;SDS011;37259;49.972;19.850;2024-01-15T05:03:25;5.9;;;1.8;;
51194;SDS011;37259;49.972;19.850;2024-01-15T05:04:25;5.9;;;1.8;;
51194;SDS011;37259;49.972;19.850;2024-01-15T05:05:25;5.9;;;1.8;;
51194;SDS011;37259;49.972;19.850;2024-01-15T05:06:25;5.9;;;1.8;;
51194;SDS011;37259;49.972;19.850;2024-01-15T05:07:25;5.9;;;1.8;;
51194;SDS011;37259;49.972;19.850;2024-01-15T05:08:25;5.9;;;1.8;;
51194;SDS011;37259;49.972;19.850;2024-01-15T05:09:25;5.9;;;1.8;;
51194;SDS011;37259;49.972;19.850;2024-01-15T05:10:25;5.9;;;1.8;;
51194;SDS011;37259;49.972;19.850;2024-01-15T05:11:26;5.9;;;1.8;;
51194;SDS011;37259;49.972;19.850;2024-01-15T05:12:25;5.9;;;1.8;;
51194;SDS011;37259;49.972;19.850;2024-01-15T05:13:25;5.9;;;1.8;;
51194;SDS011;37259;49.972;19.850;2024-01-15T05:14:25;5.9;;;1.8;;
51194;SDS011;37259;49.972;19.850;2024-01-15T05:15:25;5.9;;;1.8;;
51194;SDS011;37259;49.972;19.850;2024-01-15T05:16:25;5.9;;;1.8;;
51194;SDS011;37259;49.972;19.850;2024-01-15T05:17:25;5.9;;;1.8;;
51194;SDS011;37259;49.972;19.850;2024-01-15T05:18:25;5.9;;;1.8;;
51194;SDS011;37259;49.972;19.850;2024-01-15T05:19:25;5.9;;;1.8;;
51194;SDS011;37259;49.972;19.850;2024-01-15T05:20:25;5.9;;;1.8;;
51194;SDS011;37259;49.972;19.850;2024-01-15T05:21:25;5.9;;;1.8;;
51194;SDS011;37259;49.972;19.850;2024-01-15T05:22:25;5.9;;;1.8;;
51194;SDS011;37259;49.972;19.850;2024-01-15T05:23:25;5.9;;;1.8;;
51194;SDS011;37259;49.972;19.850;2024-01-15T05:24:25;5.9;;;1.8;;
51194;SDS011;37259;49.972;19.850;2024-01-15T05:25:25;3.4;;;1.8;;
51194;SDS011;37259;49.972;19.850;2024-01-15T05:26:25;3.4;;;1.8;;
51194;SDS011;37259;49.972;19.850;2024-01-15T05:27:25;3.4;;;1.8;;
51194;SDS011;37259;49.972;19.850;2024-01-15T05:28:25;3.4;;;1.8;;
51194;SDS011;37259;49.972;19.850;2024-01-15T05:29:25;3.4;;;1.8;;
51194;SDS011;37259;49.972;19.850;2024-01-15T05:30:25;3.4;;;1.8;;
51194;SDS011;37259;49.972;19.850;2024-01-15T05:31:25;3.4;;;1.8;;
51194;SDS011;37259;49.972;19.850;2024-01-15T05:32:25;3.4;;;1.8;;
51194;SDS011;37259;49.972;19.850;2024-01-15T05:33:25;3.4;;;1.8;;
51194;SDS011;37259;49.972;19.850;2024-01-15T05:34:25;3.4;;;1.8;;
51194;SDS011;37259;49.972;19.850;2024-01-15T05:35:25;3.4;;;1.8;;
51194;SDS011;37259;49.972;19.850;2024-01-15T05:36:25;3.4;;;1.8;;
51194;SDS011;37259;49.972;19.850;2024-01-15T05:37:25;3.4;;;1.8;;
51194;SDS011;37259;49.972;19.850;2024-01-15T05:38:25;3.4;;;1.8;;
51194;SDS011;37259;49.972;19.850;2024-01-15T05:39:25;3.4;;;1.8;;
51194;SDS011;37259;49.972;19.850;2024-01-15T05:40:25;3.4;;;1.8;;
51194;SDS011;37259;49.972;19.850;2024-01-15T05:41:25;3.4;;;1.8;;
51194;SDS011;37259;49.972;19.850;2024-01-15T05:42:25;3.4;;;1.8;;
51194;SDS011;37259;49.972;19.850;2024-01-15T05:43:25;3.4;;;1.8;;
51194;SDS011;37259;49.972;19.850;2024-01-15T05:44:25;3.4;;;1.8;;
51194;SDS011;37259;49.972;19.850;2024-01-15T05:45:25;3.4;;;1.8;;
51194;SDS011;37259;49.972;19.850;2024-01-15T05:46:25;3.4;;;1.8;;
51194;SDS011;37259;49.972;19.850;2024-01-15T05:47:25;3.4;;;1.8;;
51194;SDS011;37259;49.972;19.850;2024-01-15T05:48:25;3.4;;;1.8;;
51194;SDS011;37259;49.972;19.850;2024-01-15T05:49:25;3.4;;;1.8;;
51194;SDS011;37259;49.972;19.850;2024-01-15T05:50:25;3.4;;;1.8;;
51194;SDS011;37259;49.972;19.850;2024-01-15T05:51:25;3.4;;;1.8;;
51194;SDS011;37259;49.972;19.850;2024-01-15T05:52:25;3.4;;;1.8;;
51194;SDS011;37259;49.972;19.850;2024-01-15T05:53:25;3.4;;;1.8;;
51194;SDS011;37259;49.972;19.850;2024-01-15T05:54:25;3.4;;;1.8;;
51194;SDS011;37259;49.972;19.850;2024-01-15T05:55:25;4.4;;;2.2;;
51194;SDS011;37259;49.972;19.850;2024-01-15T05:56:25;4.4;;;2.2;;
51194;SDS011;37259;49.972;19.850;2024-01-15T05:57:25;4.4;;;2.2;;
51194;SDS011;37259;49.972;19.850;2024-01-15T05:58:25;4.4;;;2.2;;
51194;SDS011;37259;49.972;19.850;2024-01-15T05:59:25;4.4;;;2.2;;
51194;SDS011;37259;49.972;19.850;2024-01-15T06:00:25;4.4;;;2.2;;
51194;SDS011;37259;49.972;19.850;2024-01-15T06:01:25;4.4;;;2.2;;
51194;SDS011;37259;49.972;19.850;2024-01-15T06:02:25;4.4;;;2.2;;
51194;SDS011;37259;49.972;19.850;2024-01-15T06:03:25;4.4;;;2.2;;
51194;SDS011;37259;49.972;19.850;2024-01-15T06:04:25;4.4;;;2.2;;
51194;SDS011;37259;49.972;19.850;2024-01-15T06:05:25;4.4;;;2.2;;
51194;SDS011;37259;49.972;19.850;2024-01-15T06:06:25;4.4;;;2.2;;
51194;SDS011;37259;49.972;19.850;2024-01-15T06:07:25;4.4;;;2.2;;
51194;SDS011;37259;49.972;19.850;2024-01-15T06:08:25;4.4;;;2.2;;